sensor_id;sensor_type;location;lat;lon;timestamp;temperature;humidity
42245;DHT22;27912;51.828;5.688;2023-08-24T00:00:49;16.80;99.90
42245;DHT22;27912;51.828;5.688;2023-08-24T00:03:15;16.80;99.90
42245;DHT22;27912;51.828;5.688;2023-08-24T00:05:41;16.80;99.90
42245;DHT22;27912;51.828;5.688;2023-08-24T00:08:08;16.90;99.90
42245;DHT22;27912;51.828;5.688;2023-08-24T00:10:35;16.80;99.90
42245;DHT22;27912;51.828;5.688;2023-08-24T00:13:00;16.90;99.90
42245;DHT22;27912;51.828;5.688;2023-08-24T00:15:26;16.90;99.90
42245;DHT22;27912;51.828;5.688;2023-08-24T00:17:52;16.90;99.90
42245;DHT22;27912;51.828;5.688;2023-08-24T00:20:18;16.90;99.90
42245;DHT22;27912;51.828;5.688;2023-08-24T00:22:45;16.90;99.90
42245;DHT22;27912;51.828;5.688;2023-08-24T00:25:11;16.90;99.90
42245;DHT22;27912;51.828;5.688;2023-08-24T00:27:37;16.90;99.90
42245;DHT22;27912;51.828;5.688;2023-08-24T00:30:04;16.90;99.90
42245;DHT22;27912;51.828;5.688;2023-08-24T00:32:32;16.90;99.90
42245;DHT22;27912;51.828;5.688;2023-08-24T00:34:58;16.90;99.90
42245;DHT22;27912;51.828;5.688;2023-08-24T00:37:24;16.90;99.90
42245;DHT22;27912;51.828;5.688;2023-08-24T00:39:49;17.00;99.90
42245;DHT22;27912;51.828;5.688;2023-08-24T00:42:15;16.90;99.90
42245;DHT22;27912;51.828;5.688;2023-08-24T00:44:41;16.90;99.90
42245;DHT22;27912;51.828;5.688;2023-08-24T00:47:07;16.90;99.90
42245;DHT22;27912;51.828;5.688;2023-08-24T00:49:34;16.90;99.90
42245;DHT22;27912;51.828;5.688;2023-08-24T00:52:00;16.90;99.90
42245;DHT22;27912;51.828;5.688;2023-08-24T00:54:26;16.90;99.90
42245;DHT22;27912;51.828;5.688;2023-08-24T00:56:52;16.80;99.90
42245;DHT22;27912;51.828;5.688;2023-08-24T00:59:18;16.90;99.90
42245;DHT22;27912;51.828;5.688;2023-08-24T01:01:45;16.80;99.90
42245;DHT22;27912;51.828;5.688;2023-08-24T01:04:12;16.80;99.90
42245;DHT22;27912;51.828;5.688;2023-08-24T01:06:38;16.80;99.90
42245;DHT22;27912;51.828;5.688;2023-08-24T01:09:03;16.80;99.90
42245;DHT22;27912;51.828;5.688;2023-08-24T01:11:58;16.80;99.90
42245;DHT22;27912;51.828;5.688;2023-08-24T01:17:15;16.70;99.90
42245;DHT22;27912;51.828;5.688;2023-08-24T01:19:44;16.70;99.90
42245;DHT22;27912;51.828;5.688;2023-08-24T01:22:33;16.70;99.90
42245;DHT22;27912;51.828;5.688;2023-08-24T01:28:03;16.70;99.90
42245;DHT22;27912;51.828;5.688;2023-08-24T01:30:31;16.60;99.90
42245;DHT22;27912;51.828;5.688;2023-08-24T01:32:56;16.70;99.90
42245;DHT22;27912;51.828;5.688;2023-08-24T01:35:22;16.70;99.90
42245;DHT22;27912;51.828;5.688;2023-08-24T01:37:47;16.70;99.90
42245;DHT22;27912;51.828;5.688;2023-08-24T01:40:20;16.70;99.90
42245;DHT22;27912;51.828;5.688;2023-08-24T01:43:03;16.80;99.90
42245;DHT22;27912;51.828;5.688;2023-08-24T01:45:31;16.80;99.90
42245;DHT22;27912;51.828;5.688;2023-08-24T01:48:00;16.80;99.90
42245;DHT22;27912;51.828;5.688;2023-08-24T01:50:28;16.80;99.90
42245;DHT22;27912;51.828;5.688;2023-08-24T01:52:54;16.90;99.90
42245;DHT22;27912;51.828;5.688;2023-08-24T01:55:20;16.90;99.90
42245;DHT22;27912;51.828;5.688;2023-08-24T01:57:46;16.90;99.90
42245;DHT22;27912;51.828;5.688;2023-08-24T02:00:12;17.00;99.90
42245;DHT22;27912;51.828;5.688;2023-08-24T02:02:37;17.00;99.90
42245;DHT22;27912;51.828;5.688;2023-08-24T02:05:03;17.10;99.90
42245;DHT22;27912;51.828;5.688;2023-08-24T02:07:29;17.10;99.90
42245;DHT22;27912;51.828;5.688;2023-08-24T02:09:55;17.10;99.90
42245;DHT22;27912;51.828;5.688;2023-08-24T02:12:21;17.10;99.90
42245;DHT22;27912;51.828;5.688;2023-08-24T02:14:46;17.10;99.90
42245;DHT22;27912;51.828;5.688;2023-08-24T02:17:12;17.10;99.90
42245;DHT22;27912;51.828;5.688;2023-08-24T02:19:37;17.10;99.90
42245;DHT22;27912;51.828;5.688;2023-08-24T02:22:03;17.10;99.90
42245;DHT22;27912;51.828;5.688;2023-08-24T02:24:29;17.10;99.90
42245;DHT22;27912;51.828;5.688;2023-08-24T02:26:54;17.20;99.90
42245;DHT22;27912;51.828;5.688;2023-08-24T02:29:20;17.20;99.90
42245;DHT22;27912;51.828;5.688;2023-08-24T02:31:45;17.20;99.90
42245;DHT22;27912;51.828;5.688;2023-08-24T02:34:11;17.30;99.90
42245;DHT22;27912;51.828;5.688;2023-08-24T02:36:36;17.30;99.90
42245;DHT22;27912;51.828;5.688;2023-08-24T02:39:02;17.30;99.90
42245;DHT22;27912;51.828;5.688;2023-08-24T02:41:28;17.30;99.90
42245;DHT22;27912;51.828;5.688;2023-08-24T02:43:53;17.30;99.90
42245;DHT22;27912;51.828;5.688;2023-08-24T02:46:20;17.40;99.90
42245;DHT22;27912;51.828;5.688;2023-08-24T02:48:46;17.40;99.90
42245;DHT22;27912;51.828;5.688;2023-08-24T02:51:12;17.40;99.90
42245;DHT22;27912;51.828;5.688;2023-08-24T02:53:38;17.40;99.90
42245;DHT22;27912;51.828;5.688;2023-08-24T02:56:04;17.40;99.90
42245;DHT22;27912;51.828;5.688;2023-08-24T02:58:30;17.40;99.90
42245;DHT22;27912;51.828;5.688;2023-08-24T03:00:56;17.40;99.90
42245;DHT22;27912;51.828;5.688;2023-08-24T03:03:22;17.40;99.90
42245;DHT22;27912;51.828;5.688;2023-08-24T03:06:00;17.40;99.90
42245;DHT22;27912;51.828;5.688;2023-08-24T03:08:26;17.50;99.90
42245;DHT22;27912;51.828;5.688;2023-08-24T03:10:52;17.50;99.90
42245;DHT22;27912;51.828;5.688;2023-08-24T03:13:18;17.40;99.90
42245;DHT22;27912;51.828;5.688;2023-08-24T03:15:43;17.40;99.90
42245;DHT22;27912;51.828;5.688;2023-08-24T03:18:13;17.40;99.90
42245;DHT22;27912;51.828;5.688;2023-08-24T03:20:39;17.50;99.90
42245;DHT22;27912;51.828;5.688;2023-08-24T03:23:05;17.40;99.90
42245;DHT22;27912;51.828;5.688;2023-08-24T03:27:57;17.50;99.90
42245;DHT22;27912;51.828;5.688;2023-08-24T03:30:23;17.40;99.90
42245;DHT22;27912;51.828;5.688;2023-08-24T03:32:49;17.40;99.90
42245;DHT22;27912;51.828;5.688;2023-08-24T03:35:14;17.40;99.90
42245;DHT22;27912;51.828;5.688;2023-08-24T03:37:40;17.40;99.90
42245;DHT22;27912;51.828;5.688;2023-08-24T03:40:06;17.40;99.90
42245;DHT22;27912;51.828;5.688;2023-08-24T03:42:32;17.40;99.90
42245;DHT22;27912;51.828;5.688;2023-08-24T03:44:59;17.50;99.90
42245;DHT22;27912;51.828;5.688;2023-08-24T03:47:25;17.50;99.90
42245;DHT22;27912;51.828;5.688;2023-08-24T03:49:50;17.50;99.90
42245;DHT22;27912;51.828;5.688;2023-08-24T03:52:16;17.50;99.90
42245;DHT22;27912;51.828;5.688;2023-08-24T03:54:41;17.50;99.90
42245;DHT22;27912;51.828;5.688;2023-08-24T03:57:07;17.40;99.90
42245;DHT22;27912;51.828;5.688;2023-08-24T03:59:33;17.40;99.90
42245;DHT22;27912;51.828;5.688;2023-08-24T04:02:00;17.30;99.90
42245;DHT22;27912;51.828;5.688;2023-08-24T04:04:28;17.30;99.90
42245;DHT22;27912;51.828;5.688;2023-08-24T04:06:55;17.30;99.90
42245;DHT22;27912;51.828;5.688;2023-08-24T04:09:20;17.20;99.90
42245;DHT22;27912;51.828;5.688;2023-08-24T04:11:46;17.20;99.90
42245;DHT22;27912;51.828;5.688;2023-08-24T04:14:11;17.20;99.90
42245;DHT22;27912;51.828;5.688;2023-08-24T04:16:37;17.20;99.90
42245;DHT22;27912;51.828;5.688;2023-08-24T04:19:02;17.20;99.90
42245;DHT22;27912;51.828;5.688;2023-08-24T04:21:28;17.10;99.90
42245;DHT22;27912;51.828;5.688;2023-08-24T04:23:53;17.10;99.90
42245;DHT22;27912;51.828;5.688;2023-08-24T04:26:19;17.00;99.90
42245;DHT22;27912;51.828;5.688;2023-08-24T04:28:44;17.00;99.90
42245;DHT22;27912;51.828;5.688;2023-08-24T04:31:10;17.00;99.90
42245;DHT22;27912;51.828;5.688;2023-08-24T04:33:35;17.00;99.90
42245;DHT22;27912;51.828;5.688;2023-08-24T04:36:02;17.00;99.90
42245;DHT22;27912;51.828;5.688;2023-08-24T04:38:29;17.00;99.90
42245;DHT22;27912;51.828;5.688;2023-08-24T04:40:55;17.00;99.90
42245;DHT22;27912;51.828;5.688;2023-08-24T04:43:23;17.00;99.90
42245;DHT22;27912;51.828;5.688;2023-08-24T04:45:50;17.00;99.90
42245;DHT22;27912;51.828;5.688;2023-08-24T04:48:18;17.00;99.90
42245;DHT22;27912;51.828;5.688;2023-08-24T04:50:44;17.00;99.90
42245;DHT22;27912;51.828;5.688;2023-08-24T04:53:11;17.00;99.90
42245;DHT22;27912;51.828;5.688;2023-08-24T04:55:37;16.90;99.90
42245;DHT22;27912;51.828;5.688;2023-08-24T04:58:02;16.90;99.90
42245;DHT22;27912;51.828;5.688;2023-08-24T05:00:28;16.90;99.90
42245;DHT22;27912;51.828;5.688;2023-08-24T05:02:54;16.90;99.90
42245;DHT22;27912;51.828;5.688;2023-08-24T05:05:19;16.90;99.90
42245;DHT22;27912;51.828;5.688;2023-08-24T05:07:45;16.90;99.90
42245;DHT22;27912;51.828;5.688;2023-08-24T05:10:11;16.90;99.90
42245;DHT22;27912;51.828;5.688;2023-08-24T05:12:36;16.90;99.90
42245;DHT22;27912;51.828;5.688;2023-08-24T05:15:02;16.90;99.90
42245;DHT22;27912;51.828;5.688;2023-08-24T05:17:28;16.90;99.90
42245;DHT22;27912;51.828;5.688;2023-08-24T05:19:54;16.90;99.90
42245;DHT22;27912;51.828;5.688;2023-08-24T05:22:20;16.90;99.90
42245;DHT22;27912;51.828;5.688;2023-08-24T05:24:46;16.90;99.90
42245;DHT22;27912;51.828;5.688;2023-08-24T05:27:12;16.90;99.90
42245;DHT22;27912;51.828;5.688;2023-08-24T05:29:37;16.90;99.90
42245;DHT22;27912;51.828;5.688;2023-08-24T05:32:03;17.00;99.90
42245;DHT22;27912;51.828;5.688;2023-08-24T05:34:29;17.00;99.90
42245;DHT22;27912;51.828;5.688;2023-08-24T05:36:54;17.10;99.90
42245;DHT22;27912;51.828;5.688;2023-08-24T05:39:20;17.10;99.90
42245;DHT22;27912;51.828;5.688;2023-08-24T05:41:45;17.20;99.90
42245;DHT22;27912;51.828;5.688;2023-08-24T05:44:11;17.20;99.90
42245;DHT22;27912;51.828;5.688;2023-08-24T05:46:36;17.30;99.90
42245;DHT22;27912;51.828;5.688;2023-08-24T05:49:02;17.30;99.90
42245;DHT22;27912;51.828;5.688;2023-08-24T05:51:28;17.40;99.90
42245;DHT22;27912;51.828;5.688;2023-08-24T05:53:54;17.50;99.90
42245;DHT22;27912;51.828;5.688;2023-08-24T05:56:24;17.50;99.90
42245;DHT22;27912;51.828;5.688;2023-08-24T05:58:50;17.60;99.90
42245;DHT22;27912;51.828;5.688;2023-08-24T06:01:16;17.70;99.90
42245;DHT22;27912;51.828;5.688;2023-08-24T06:03:42;17.80;99.90
42245;DHT22;27912;51.828;5.688;2023-08-24T06:06:07;17.80;99.90
42245;DHT22;27912;51.828;5.688;2023-08-24T06:08:34;18.00;99.90
42245;DHT22;27912;51.828;5.688;2023-08-24T06:11:00;18.00;99.90
42245;DHT22;27912;51.828;5.688;2023-08-24T06:13:25;18.10;99.90
42245;DHT22;27912;51.828;5.688;2023-08-24T06:15:52;18.20;99.90
42245;DHT22;27912;51.828;5.688;2023-08-24T06:18:17;18.30;99.90
42245;DHT22;27912;51.828;5.688;2023-08-24T06:20:43;18.30;99.90
42245;DHT22;27912;51.828;5.688;2023-08-24T06:23:08;18.40;99.90
42245;DHT22;27912;51.828;5.688;2023-08-24T06:25:35;18.50;99.90
42245;DHT22;27912;51.828;5.688;2023-08-24T06:28:00;18.60;99.90
42245;DHT22;27912;51.828;5.688;2023-08-24T06:30:29;18.70;99.90
42245;DHT22;27912;51.828;5.688;2023-08-24T06:32:58;18.80;99.90
42245;DHT22;27912;51.828;5.688;2023-08-24T06:35:24;18.90;99.90
42245;DHT22;27912;51.828;5.688;2023-08-24T06:37:49;19.00;99.90
42245;DHT22;27912;51.828;5.688;2023-08-24T06:40:15;19.00;99.90
42245;DHT22;27912;51.828;5.688;2023-08-24T06:42:42;19.20;99.90
42245;DHT22;27912;51.828;5.688;2023-08-24T06:45:08;19.20;99.90
42245;DHT22;27912;51.828;5.688;2023-08-24T06:47:35;19.40;99.90
42245;DHT22;27912;51.828;5.688;2023-08-24T06:50:01;19.40;99.90
42245;DHT22;27912;51.828;5.688;2023-08-24T06:52:27;19.50;99.90
42245;DHT22;27912;51.828;5.688;2023-08-24T06:54:52;19.60;99.90
42245;DHT22;27912;51.828;5.688;2023-08-24T06:57:21;19.60;99.90
42245;DHT22;27912;51.828;5.688;2023-08-24T06:59:46;19.70;99.90
42245;DHT22;27912;51.828;5.688;2023-08-24T07:02:12;19.90;99.90
42245;DHT22;27912;51.828;5.688;2023-08-24T07:04:38;19.90;99.90
42245;DHT22;27912;51.828;5.688;2023-08-24T07:07:06;20.10;99.90
42245;DHT22;27912;51.828;5.688;2023-08-24T07:09:31;20.20;99.90
42245;DHT22;27912;51.828;5.688;2023-08-24T07:11:57;20.30;99.90
42245;DHT22;27912;51.828;5.688;2023-08-24T07:14:22;20.40;99.90
42245;DHT22;27912;51.828;5.688;2023-08-24T07:16:48;20.50;99.90
42245;DHT22;27912;51.828;5.688;2023-08-24T07:19:14;20.60;99.90
42245;DHT22;27912;51.828;5.688;2023-08-24T07:21:39;20.60;99.90
42245;DHT22;27912;51.828;5.688;2023-08-24T07:24:05;20.70;99.90
42245;DHT22;27912;51.828;5.688;2023-08-24T07:26:30;20.90;99.90
42245;DHT22;27912;51.828;5.688;2023-08-24T07:28:56;21.10;99.90
42245;DHT22;27912;51.828;5.688;2023-08-24T07:31:22;21.10;99.90
42245;DHT22;27912;51.828;5.688;2023-08-24T07:33:48;21.20;99.90
42245;DHT22;27912;51.828;5.688;2023-08-24T07:36:14;21.40;99.90
42245;DHT22;27912;51.828;5.688;2023-08-24T07:38:39;21.50;99.90
42245;DHT22;27912;51.828;5.688;2023-08-24T07:41:05;21.60;99.90
42245;DHT22;27912;51.828;5.688;2023-08-24T07:43:32;21.70;99.90
42245;DHT22;27912;51.828;5.688;2023-08-24T07:45:58;21.80;99.90
42245;DHT22;27912;51.828;5.688;2023-08-24T07:48:24;21.90;99.90
42245;DHT22;27912;51.828;5.688;2023-08-24T07:50:50;22.00;99.90
42245;DHT22;27912;51.828;5.688;2023-08-24T07:53:16;22.20;99.90
42245;DHT22;27912;51.828;5.688;2023-08-24T07:55:42;22.30;99.90
42245;DHT22;27912;51.828;5.688;2023-08-24T07:58:08;22.50;99.90
42245;DHT22;27912;51.828;5.688;2023-08-24T08:00:34;22.60;99.90
42245;DHT22;27912;51.828;5.688;2023-08-24T08:03:00;22.70;99.90
42245;DHT22;27912;51.828;5.688;2023-08-24T08:05:25;22.80;99.90
42245;DHT22;27912;51.828;5.688;2023-08-24T08:07:52;22.90;99.90
42245;DHT22;27912;51.828;5.688;2023-08-24T08:10:17;23.00;99.90
42245;DHT22;27912;51.828;5.688;2023-08-24T08:12:45;23.10;99.90
42245;DHT22;27912;51.828;5.688;2023-08-24T08:15:11;23.20;99.90
42245;DHT22;27912;51.828;5.688;2023-08-24T08:17:36;23.40;99.90
42245;DHT22;27912;51.828;5.688;2023-08-24T08:20:02;23.50;99.90
42245;DHT22;27912;51.828;5.688;2023-08-24T08:22:28;23.60;99.90
42245;DHT22;27912;51.828;5.688;2023-08-24T08:24:54;23.70;99.90
42245;DHT22;27912;51.828;5.688;2023-08-24T08:27:22;23.80;99.90
42245;DHT22;27912;51.828;5.688;2023-08-24T08:29:48;24.00;99.90
42245;DHT22;27912;51.828;5.688;2023-08-24T08:32:14;24.10;99.90
42245;DHT22;27912;51.828;5.688;2023-08-24T08:34:39;24.10;99.90
42245;DHT22;27912;51.828;5.688;2023-08-24T08:37:05;24.30;99.90
42245;DHT22;27912;51.828;5.688;2023-08-24T08:39:32;24.40;99.90
42245;DHT22;27912;51.828;5.688;2023-08-24T08:41:58;24.50;99.90
42245;DHT22;27912;51.828;5.688;2023-08-24T08:44:25;24.60;99.90
42245;DHT22;27912;51.828;5.688;2023-08-24T08:46:56;24.70;99.90
42245;DHT22;27912;51.828;5.688;2023-08-24T08:49:22;24.70;99.90
42245;DHT22;27912;51.828;5.688;2023-08-24T08:51:48;24.90;99.90
42245;DHT22;27912;51.828;5.688;2023-08-24T08:54:14;25.10;99.90
42245;DHT22;27912;51.828;5.688;2023-08-24T08:56:40;25.10;99.90
42245;DHT22;27912;51.828;5.688;2023-08-24T08:59:08;25.20;99.90
42245;DHT22;27912;51.828;5.688;2023-08-24T09:01:37;25.30;99.90
42245;DHT22;27912;51.828;5.688;2023-08-24T09:04:03;25.40;99.90
42245;DHT22;27912;51.828;5.688;2023-08-24T09:06:30;25.40;99.90
42245;DHT22;27912;51.828;5.688;2023-08-24T09:08:56;25.40;99.90
42245;DHT22;27912;51.828;5.688;2023-08-24T09:11:22;25.50;99.90
42245;DHT22;27912;51.828;5.688;2023-08-24T09:13:48;25.60;99.90
42245;DHT22;27912;51.828;5.688;2023-08-24T09:16:14;25.70;99.90
42245;DHT22;27912;51.828;5.688;2023-08-24T09:18:43;25.80;99.90
42245;DHT22;27912;51.828;5.688;2023-08-24T09:21:11;25.90;99.90
42245;DHT22;27912;51.828;5.688;2023-08-24T09:23:45;25.90;99.90
42245;DHT22;27912;51.828;5.688;2023-08-24T09:26:13;26.00;99.90
42245;DHT22;27912;51.828;5.688;2023-08-24T09:28:42;26.00;99.90
42245;DHT22;27912;51.828;5.688;2023-08-24T09:31:11;26.10;99.90
42245;DHT22;27912;51.828;5.688;2023-08-24T09:33:37;26.20;99.90
42245;DHT22;27912;51.828;5.688;2023-08-24T09:36:06;26.30;99.90
42245;DHT22;27912;51.828;5.688;2023-08-24T09:38:31;26.30;99.90
42245;DHT22;27912;51.828;5.688;2023-08-24T09:40:57;26.40;99.90
42245;DHT22;27912;51.828;5.688;2023-08-24T09:43:23;26.50;99.90
42245;DHT22;27912;51.828;5.688;2023-08-24T09:45:56;26.60;99.90
42245;DHT22;27912;51.828;5.688;2023-08-24T09:48:22;26.60;99.90
42245;DHT22;27912;51.828;5.688;2023-08-24T09:50:50;26.60;99.90
42245;DHT22;27912;51.828;5.688;2023-08-24T09:53:23;26.80;99.90
42245;DHT22;27912;51.828;5.688;2023-08-24T09:55:59;27.00;99.90
42245;DHT22;27912;51.828;5.688;2023-08-24T09:58:26;27.00;99.90
42245;DHT22;27912;51.828;5.688;2023-08-24T10:00:52;27.10;99.90
42245;DHT22;27912;51.828;5.688;2023-08-24T10:03:19;27.10;99.90
42245;DHT22;27912;51.828;5.688;2023-08-24T10:05:57;27.10;99.90
42245;DHT22;27912;51.828;5.688;2023-08-24T10:08:32;27.00;99.90
42245;DHT22;27912;51.828;5.688;2023-08-24T10:10:59;26.90;99.90
42245;DHT22;27912;51.828;5.688;2023-08-24T10:16:42;26.70;99.90
42245;DHT22;27912;51.828;5.688;2023-08-24T10:19:09;26.40;99.90
42245;DHT22;27912;51.828;5.688;2023-08-24T10:21:37;26.30;99.90
42245;DHT22;27912;51.828;5.688;2023-08-24T10:24:04;26.20;99.90
42245;DHT22;27912;51.828;5.688;2023-08-24T10:26:30;26.00;99.90
42245;DHT22;27912;51.828;5.688;2023-08-24T10:28:58;25.90;99.90
42245;DHT22;27912;51.828;5.688;2023-08-24T10:31:24;25.70;99.90
42245;DHT22;27912;51.828;5.688;2023-08-24T10:33:50;25.60;99.90
42245;DHT22;27912;51.828;5.688;2023-08-24T10:36:16;25.60;99.90
42245;DHT22;27912;51.828;5.688;2023-08-24T10:38:43;25.60;99.90
42245;DHT22;27912;51.828;5.688;2023-08-24T10:41:10;25.50;99.90
42245;DHT22;27912;51.828;5.688;2023-08-24T10:43:40;25.40;99.90
42245;DHT22;27912;51.828;5.688;2023-08-24T10:46:14;25.40;99.90
42245;DHT22;27912;51.828;5.688;2023-08-24T10:53:39;25.30;99.90
42245;DHT22;27912;51.828;5.688;2023-08-24T10:56:17;25.30;99.90
42245;DHT22;27912;51.828;5.688;2023-08-24T10:58:43;25.30;99.90
42245;DHT22;27912;51.828;5.688;2023-08-24T11:01:17;25.30;99.90
42245;DHT22;27912;51.828;5.688;2023-08-24T11:03:55;25.40;99.90
42245;DHT22;27912;51.828;5.688;2023-08-24T11:06:22;25.40;99.90
42245;DHT22;27912;51.828;5.688;2023-08-24T11:08:49;25.40;99.90
42245;DHT22;27912;51.828;5.688;2023-08-24T11:11:19;25.40;99.90
42245;DHT22;27912;51.828;5.688;2023-08-24T11:16:42;25.50;99.90
42245;DHT22;27912;51.828;5.688;2023-08-24T11:19:09;25.50;99.90
42245;DHT22;27912;51.828;5.688;2023-08-24T11:21:36;25.50;99.90
42245;DHT22;27912;51.828;5.688;2023-08-24T11:24:02;25.50;99.90
42245;DHT22;27912;51.828;5.688;2023-08-24T11:26:29;25.50;99.90
42245;DHT22;27912;51.828;5.688;2023-08-24T11:28:56;25.60;99.90
42245;DHT22;27912;51.828;5.688;2023-08-24T11:31:26;25.60;99.90
42245;DHT22;27912;51.828;5.688;2023-08-24T11:33:55;25.70;99.90
42245;DHT22;27912;51.828;5.688;2023-08-24T11:36:22;25.80;99.90
42245;DHT22;27912;51.828;5.688;2023-08-24T11:38:52;25.90;99.90
42245;DHT22;27912;51.828;5.688;2023-08-24T11:41:19;26.00;99.90
42245;DHT22;27912;51.828;5.688;2023-08-24T11:43:47;26.10;99.90
42245;DHT22;27912;51.828;5.688;2023-08-24T11:46:17;26.30;99.90
42245;DHT22;27912;51.828;5.688;2023-08-24T11:48:44;26.40;99.90
42245;DHT22;27912;51.828;5.688;2023-08-24T11:51:11;26.50;99.90
42245;DHT22;27912;51.828;5.688;2023-08-24T11:53:45;26.50;99.90
42245;DHT22;27912;51.828;5.688;2023-08-24T11:56:12;26.60;99.90
42245;DHT22;27912;51.828;5.688;2023-08-24T11:58:42;26.60;99.90
42245;DHT22;27912;51.828;5.688;2023-08-24T12:01:09;26.70;99.90
42245;DHT22;27912;51.828;5.688;2023-08-24T12:03:38;26.80;99.90
42245;DHT22;27912;51.828;5.688;2023-08-24T12:06:12;26.80;99.90
42245;DHT22;27912;51.828;5.688;2023-08-24T12:08:39;26.90;99.90
42245;DHT22;27912;51.828;5.688;2023-08-24T12:11:17;26.90;99.90
42245;DHT22;27912;51.828;5.688;2023-08-24T12:13:48;27.00;99.90
42245;DHT22;27912;51.828;5.688;2023-08-24T12:16:15;26.90;99.90
42245;DHT22;27912;51.828;5.688;2023-08-24T12:18:51;26.90;99.90
42245;DHT22;27912;51.828;5.688;2023-08-24T12:21:16;27.00;99.90
42245;DHT22;27912;51.828;5.688;2023-08-24T12:23:42;26.90;99.90
42245;DHT22;27912;51.828;5.688;2023-08-24T12:26:08;26.90;99.90
42245;DHT22;27912;51.828;5.688;2023-08-24T12:28:34;26.80;99.90
42245;DHT22;27912;51.828;5.688;2023-08-24T12:31:00;26.80;99.90
42245;DHT22;27912;51.828;5.688;2023-08-24T12:33:31;26.70;99.90
42245;DHT22;27912;51.828;5.688;2023-08-24T12:35:57;26.70;99.90
42245;DHT22;27912;51.828;5.688;2023-08-24T12:38:26;26.60;99.90
42245;DHT22;27912;51.828;5.688;2023-08-24T12:40:53;26.60;99.90
42245;DHT22;27912;51.828;5.688;2023-08-24T12:43:19;26.60;99.90
42245;DHT22;27912;51.828;5.688;2023-08-24T12:45:44;26.70;99.90
42245;DHT22;27912;51.828;5.688;2023-08-24T12:48:10;26.80;99.90
42245;DHT22;27912;51.828;5.688;2023-08-24T12:50:38;27.00;99.90
42245;DHT22;27912;51.828;5.688;2023-08-24T12:53:04;27.20;99.90
42245;DHT22;27912;51.828;5.688;2023-08-24T12:55:32;27.40;99.90
42245;DHT22;27912;51.828;5.688;2023-08-24T12:57:58;27.60;99.90
42245;DHT22;27912;51.828;5.688;2023-08-24T13:00:24;27.90;99.90
42245;DHT22;27912;51.828;5.688;2023-08-24T13:02:50;28.00;99.90
42245;DHT22;27912;51.828;5.688;2023-08-24T13:05:16;28.00;99.90
42245;DHT22;27912;51.828;5.688;2023-08-24T13:07:42;28.10;99.90
42245;DHT22;27912;51.828;5.688;2023-08-24T13:10:08;28.20;99.90
42245;DHT22;27912;51.828;5.688;2023-08-24T13:12:35;28.30;99.90
42245;DHT22;27912;51.828;5.688;2023-08-24T13:15:01;28.30;99.90
42245;DHT22;27912;51.828;5.688;2023-08-24T13:17:29;28.30;99.90
42245;DHT22;27912;51.828;5.688;2023-08-24T13:19:55;28.30;99.90
42245;DHT22;27912;51.828;5.688;2023-08-24T13:22:20;28.30;99.90
42245;DHT22;27912;51.828;5.688;2023-08-24T13:24:46;28.20;99.90
42245;DHT22;27912;51.828;5.688;2023-08-24T13:27:11;28.10;99.90
42245;DHT22;27912;51.828;5.688;2023-08-24T13:29:37;28.10;99.90
42245;DHT22;27912;51.828;5.688;2023-08-24T13:32:03;28.10;99.90
42245;DHT22;27912;51.828;5.688;2023-08-24T13:34:30;27.90;99.90
42245;DHT22;27912;51.828;5.688;2023-08-24T13:36:56;27.80;99.90
42245;DHT22;27912;51.828;5.688;2023-08-24T13:39:22;27.80;99.90
42245;DHT22;27912;51.828;5.688;2023-08-24T13:41:48;27.60;99.90
42245;DHT22;27912;51.828;5.688;2023-08-24T13:44:13;27.50;99.90
42245;DHT22;27912;51.828;5.688;2023-08-24T13:46:39;27.40;99.90
42245;DHT22;27912;51.828;5.688;2023-08-24T13:49:04;27.30;99.90
42245;DHT22;27912;51.828;5.688;2023-08-24T13:51:30;27.30;99.90
42245;DHT22;27912;51.828;5.688;2023-08-24T13:53:55;27.20;99.90
42245;DHT22;27912;51.828;5.688;2023-08-24T13:56:21;27.10;99.90
42245;DHT22;27912;51.828;5.688;2023-08-24T13:58:47;26.90;99.90
42245;DHT22;27912;51.828;5.688;2023-08-24T14:01:12;26.80;99.90
42245;DHT22;27912;51.828;5.688;2023-08-24T14:03:39;26.60;99.90
42245;DHT22;27912;51.828;5.688;2023-08-24T14:06:08;26.40;99.90
42245;DHT22;27912;51.828;5.688;2023-08-24T14:08:34;26.30;99.90
42245;DHT22;27912;51.828;5.688;2023-08-24T14:10:59;26.20;99.90
42245;DHT22;27912;51.828;5.688;2023-08-24T14:13:25;26.10;99.90
42245;DHT22;27912;51.828;5.688;2023-08-24T14:15:51;26.10;99.90
42245;DHT22;27912;51.828;5.688;2023-08-24T14:18:16;26.10;99.90
42245;DHT22;27912;51.828;5.688;2023-08-24T14:20:43;26.00;99.90
42245;DHT22;27912;51.828;5.688;2023-08-24T14:23:09;25.90;99.90
42245;DHT22;27912;51.828;5.688;2023-08-24T14:25:34;25.90;99.90
42245;DHT22;27912;51.828;5.688;2023-08-24T14:28:00;25.80;99.90
42245;DHT22;27912;51.828;5.688;2023-08-24T14:30:26;25.70;99.90
42245;DHT22;27912;51.828;5.688;2023-08-24T14:32:51;25.60;99.90
42245;DHT22;27912;51.828;5.688;2023-08-24T14:35:17;25.60;99.90
42245;DHT22;27912;51.828;5.688;2023-08-24T14:37:42;25.60;99.90
42245;DHT22;27912;51.828;5.688;2023-08-24T14:40:08;25.60;99.90
42245;DHT22;27912;51.828;5.688;2023-08-24T14:42:36;25.60;99.90
42245;DHT22;27912;51.828;5.688;2023-08-24T14:45:02;25.70;99.90
42245;DHT22;27912;51.828;5.688;2023-08-24T14:47:27;25.80;99.90
42245;DHT22;27912;51.828;5.688;2023-08-24T14:49:53;25.80;99.90
42245;DHT22;27912;51.828;5.688;2023-08-24T14:52:18;25.80;99.90
42245;DHT22;27912;51.828;5.688;2023-08-24T14:54:44;25.80;99.90
42245;DHT22;27912;51.828;5.688;2023-08-24T14:57:10;25.80;99.90
42245;DHT22;27912;51.828;5.688;2023-08-24T14:59:36;25.80;99.90
42245;DHT22;27912;51.828;5.688;2023-08-24T15:02:02;25.70;99.90
42245;DHT22;27912;51.828;5.688;2023-08-24T15:04:27;25.70;99.90
42245;DHT22;27912;51.828;5.688;2023-08-24T15:06:53;25.60;99.90
42245;DHT22;27912;51.828;5.688;2023-08-24T15:09:19;25.60;99.90
42245;DHT22;27912;51.828;5.688;2023-08-24T15:11:45;25.60;99.90
42245;DHT22;27912;51.828;5.688;2023-08-24T15:14:10;25.60;99.90
42245;DHT22;27912;51.828;5.688;2023-08-24T15:16:36;25.60;99.90
42245;DHT22;27912;51.828;5.688;2023-08-24T15:19:02;25.40;99.90
42245;DHT22;27912;51.828;5.688;2023-08-24T15:21:27;25.40;99.90
42245;DHT22;27912;51.828;5.688;2023-08-24T15:23:54;25.40;99.90
42245;DHT22;27912;51.828;5.688;2023-08-24T15:26:19;25.30;99.90
42245;DHT22;27912;51.828;5.688;2023-08-24T15:29:14;25.40;99.90
42245;DHT22;27912;51.828;5.688;2023-08-24T15:31:43;25.40;99.90
42245;DHT22;27912;51.828;5.688;2023-08-24T15:34:09;25.40;99.90
42245;DHT22;27912;51.828;5.688;2023-08-24T15:36:35;25.30;99.90
42245;DHT22;27912;51.828;5.688;2023-08-24T15:39:01;25.20;99.90
42245;DHT22;27912;51.828;5.688;2023-08-24T15:41:26;25.20;99.90
42245;DHT22;27912;51.828;5.688;2023-08-24T15:43:52;25.20;99.90
42245;DHT22;27912;51.828;5.688;2023-08-24T15:46:17;25.10;99.90